createdAt,value
2018-03-17T00:02:42.139Z,8.80
2018-03-17T00:07:44.702Z,7.63
2018-03-17T00:12:47.233Z,10.57
2018-03-17T00:17:49.811Z,4.33
2018-03-17T00:22:52.353Z,10.17
2018-03-17T00:27:54.894Z,7.33
2018-03-17T00:32:57.441Z,8.73
2018-03-17T00:38:00.005Z,4.93
2018-03-17T00:43:02.569Z,6.10
2018-03-17T00:48:05.106Z,8.20
2018-03-17T00:53:07.652Z,10.00
2018-03-17T00:58:10.195Z,8.13
2018-03-17T01:03:12.749Z,6.37
2018-03-17T01:08:15.286Z,8.77
2018-03-17T01:13:17.815Z,7.20
2018-03-17T01:18:20.346Z,9.53
2018-03-17T01:23:22.913Z,7.07
2018-03-17T01:28:25.466Z,8.53
2018-03-17T01:33:28.006Z,8.67
2018-03-17T01:38:30.568Z,6.60
2018-03-17T01:43:33.902Z,10.70
2018-03-17T01:48:37.226Z,12.30
2018-03-17T01:53:39.778Z,13.93
2018-03-17T01:58:43.127Z,11.87
2018-03-17T02:03:48.011Z,10.43
2018-03-17T02:08:50.561Z,11.50
2018-03-17T02:13:53.882Z,12.20
2018-03-17T02:18:56.423Z,11.50
2018-03-17T02:23:59.086Z,9.40
2018-03-17T02:29:02.409Z,11.07
2018-03-17T02:34:05.718Z,14.47
2018-03-17T02:39:08.259Z,12.33
2018-03-17T02:44:11.103Z,12.43
2018-03-17T02:49:13.640Z,7.97
2018-03-17T02:54:16.965Z,10.90
2018-03-17T02:59:19.536Z,16.80
2018-03-17T03:04:22.072Z,18.90
2018-03-17T03:09:24.610Z,17.93
2018-03-17T03:14:27.145Z,16.50
2018-03-17T03:19:30.462Z,15.87
2018-03-17T03:24:33.034Z,16.70
2018-03-17T03:29:35.582Z,14.90
2018-03-17T03:34:38.170Z,12.57
2018-03-17T03:39:41.480Z,18.97
2018-03-17T03:44:44.784Z,14.50
2018-03-17T03:49:47.340Z,12.37
2018-03-17T03:54:49.888Z,14.73
2018-03-17T03:59:52.422Z,18.93
2018-03-17T04:04:55.107Z,35.60
2018-03-17T04:09:57.678Z,25.63
2018-03-17T04:15:00.235Z,21.77
2018-03-17T04:20:02.793Z,24.83
2018-03-17T04:25:06.135Z,33.07
2018-03-17T04:30:08.681Z,25.60
2018-03-17T04:35:11.233Z,28.03
2018-03-17T04:40:13.768Z,23.23
2018-03-17T04:45:16.347Z,21.03
2018-03-17T04:50:18.910Z,30.80
2018-03-17T04:55:22.214Z,31.80
2018-03-17T05:00:24.785Z,27.10
2018-03-17T05:05:27.330Z,27.40
2018-03-17T05:10:29.884Z,27.97
2018-03-17T05:15:33.187Z,23.47
2018-03-17T05:20:35.745Z,26.77
2018-03-17T05:25:38.298Z,25.77
2018-03-17T05:30:40.876Z,23.60
2018-03-17T05:35:43.445Z,21.43
2018-03-17T05:40:46.758Z,24.63
2018-03-17T05:45:49.289Z,33.40
2018-03-17T05:50:52.151Z,24.27
2018-03-17T05:55:54.818Z,22.90
2018-03-17T06:00:57.376Z,24.33
2018-03-17T06:06:00.692Z,25.97
2018-03-17T06:11:04.026Z,21.60
2018-03-17T06:16:06.582Z,31.37
2018-03-17T06:21:09.101Z,22.40
2018-03-17T06:26:12.419Z,25.10
2018-03-17T06:31:15.730Z,27.03
2018-03-17T06:36:18.273Z,21.80
2018-03-17T06:41:20.800Z,24.10
2018-03-17T06:46:23.336Z,20.60
2018-03-17T06:51:26.648Z,17.57
2018-03-17T06:56:29.508Z,18.80
2018-03-17T07:01:32.100Z,21.23
2018-03-17T07:06:34.653Z,18.97
2018-03-17T07:11:37.201Z,20.20
2018-03-17T07:16:39.759Z,19.97
2018-03-17T07:21:42.279Z,21.53
2018-03-17T07:26:44.818Z,16.87
2018-03-17T07:31:47.363Z,19.80
2018-03-17T07:36:49.906Z,21.30
2018-03-17T07:41:52.491Z,23.17
2018-03-17T07:46:55.055Z,16.43
2018-03-17T07:51:58.362Z,23.40
2018-03-17T07:57:00.919Z,21.43
2018-03-17T08:02:03.500Z,25.20
2018-03-17T08:07:06.065Z,16.20
2018-03-17T08:12:09.704Z,20.97
2018-03-17T08:17:13.044Z,18.63
2018-03-17T08:22:15.642Z,25.70
2018-03-17T08:27:18.202Z,20.70
2018-03-17T08:32:20.757Z,17.47
2018-03-17T08:37:23.294Z,20.47
2018-03-17T08:42:25.844Z,25.50
2018-03-17T08:47:28.382Z,28.20
2018-03-17T08:52:31.832Z,21.90
2018-03-17T09:02:48.213Z,25.43
2018-03-17T09:07:50.750Z,20.90
2018-03-17T09:12:53.302Z,21.90
2018-03-17T09:17:56.068Z,24.23
2018-03-17T09:22:58.694Z,21.80
2018-03-17T09:28:02.026Z,23.57
2018-03-17T09:33:04.589Z,22.33
2018-03-17T09:38:07.230Z,21.10
2018-03-17T09:43:09.802Z,14.43
2018-03-17T09:48:12.384Z,20.00
2018-03-17T09:53:16.710Z,13.20
2018-03-17T09:58:19.392Z,22.87
2018-03-17T10:03:22.067Z,24.30
2018-03-17T10:08:25.879Z,16.90
2018-03-17T10:13:29.346Z,18.30
2018-03-17T10:18:32.243Z,21.33
2018-03-17T10:23:34.830Z,20.40
2018-03-17T10:28:38.211Z,24.97
2018-03-17T10:33:40.747Z,25.43
2018-03-17T10:38:43.334Z,20.30
2018-03-17T10:43:46.954Z,18.77
2018-03-17T10:48:50.481Z,21.13
2018-03-17T10:53:53.386Z,17.67
2018-03-17T10:58:55.953Z,18.80
2018-03-17T11:03:58.570Z,24.50
2018-03-17T11:09:01.156Z,21.97
2018-03-17T11:14:03.821Z,19.23
2018-03-17T11:19:06.361Z,22.77
2018-03-17T11:24:08.931Z,21.30
2018-03-17T11:29:11.505Z,21.17
2018-03-17T11:34:14.068Z,22.97
2018-03-17T11:39:16.690Z,19.87
2018-03-17T11:44:19.250Z,19.87
2018-03-17T11:49:21.828Z,15.17
2018-03-17T11:54:24.378Z,14.50
2018-03-17T11:59:26.938Z,18.73
2018-03-17T12:04:29.814Z,17.43
2018-03-17T12:09:32.386Z,18.73
2018-03-17T12:14:34.945Z,16.37
2018-03-17T12:19:37.608Z,15.53
2018-03-17T12:24:40.152Z,19.20
2018-03-17T12:29:42.712Z,11.90
2018-03-17T12:34:46.039Z,16.20
2018-03-17T12:39:48.598Z,16.87
2018-03-17T12:44:51.143Z,15.73
2018-03-17T12:49:53.704Z,14.27
2018-03-17T12:54:56.295Z,17.80
2018-03-17T12:59:59.583Z,18.20
2018-03-17T13:05:02.163Z,19.40
2018-03-17T13:10:04.732Z,15.90
2018-03-17T13:15:08.063Z,20.80
2018-03-17T13:20:10.617Z,19.97
2018-03-17T13:25:13.214Z,20.53
2018-03-17T13:30:15.820Z,20.10
2018-03-17T13:35:18.733Z,24.07
2018-03-17T13:40:32.191Z,20.17
2018-03-17T13:45:34.759Z,22.57
2018-03-17T13:50:38.200Z,21.73
2018-03-17T13:55:40.776Z,24.80
2018-03-17T14:00:43.352Z,22.83
2018-03-17T14:05:45.900Z,21.60
2018-03-17T14:10:48.538Z,22.63
2018-03-17T14:15:51.903Z,16.83
2018-03-17T14:20:54.456Z,25.30
2018-03-17T14:25:57.783Z,24.73
2018-03-17T14:31:01.129Z,20.43
2018-03-17T14:36:03.698Z,25.70
2018-03-17T14:41:06.251Z,25.93
2018-03-17T14:46:12.978Z,22.40
2018-03-17T14:51:15.546Z,24.03
2018-03-17T14:56:18.972Z,21.20
2018-03-17T15:01:21.538Z,23.53
2018-03-17T15:06:24.112Z,28.03
2018-03-17T15:11:26.716Z,20.43
2018-03-17T15:16:29.256Z,20.70
2018-03-17T15:21:31.823Z,25.90
2018-03-17T15:26:34.418Z,20.90
2018-03-17T15:31:37.763Z,18.60
2018-03-17T15:36:40.322Z,19.23
2018-03-17T15:41:42.886Z,24.47
2018-03-17T15:46:46.352Z,27.50
2018-03-17T15:51:49.270Z,21.10
2018-03-17T15:56:51.834Z,20.10
2018-03-17T16:01:55.152Z,19.97
2018-03-17T16:06:57.716Z,20.53
2018-03-17T16:12:01.177Z,25.07
2018-03-17T16:17:03.735Z,22.83
2018-03-17T16:22:06.329Z,22.73
2018-03-17T16:27:09.816Z,18.60
2018-03-17T16:37:27.571Z,21.03
2018-03-17T16:42:30.138Z,19.53
2018-03-17T16:47:32.730Z,29.33
2018-03-17T16:52:36.212Z,26.13
2018-03-17T16:57:39.584Z,19.10
2018-03-17T17:02:42.179Z,27.30
2018-03-17T17:07:44.743Z,18.00
2018-03-17T17:12:47.479Z,25.27
2018-03-17T17:17:50.419Z,27.40
2018-03-17T17:22:53.110Z,22.63
2018-03-17T17:27:55.689Z,22.00
2018-03-17T17:32:58.468Z,22.00
2018-03-17T17:38:01.002Z,22.10
2018-03-17T17:43:03.568Z,32.23
2018-03-17T17:48:06.905Z,19.73
2018-03-17T17:53:09.463Z,14.30
2018-03-17T17:58:12.119Z,20.70
2018-03-17T18:03:14.699Z,26.67
2018-03-17T18:08:17.266Z,24.73
2018-03-17T18:13:19.955Z,20.33
2018-03-17T18:18:22.751Z,22.37
2018-03-17T18:23:25.906Z,21.20
2018-03-17T18:28:28.547Z,22.60
2018-03-17T18:33:31.118Z,22.40
2018-03-17T18:38:33.645Z,18.10
2018-03-17T18:43:36.214Z,23.17
2018-03-17T18:48:38.747Z,20.50
2018-03-17T18:53:41.304Z,26.10
2018-03-17T18:58:43.850Z,23.70
2018-03-17T19:03:46.387Z,15.90
2018-03-17T19:08:49.759Z,21.17
2018-03-17T19:13:52.353Z,17.03
2018-03-17T19:18:54.917Z,21.73
2018-03-17T19:23:57.491Z,18.50
2018-03-17T19:29:00.059Z,18.50
2018-03-17T19:34:02.631Z,16.07
2018-03-17T19:39:05.211Z,23.90
2018-03-17T19:44:07.808Z,19.07
2018-03-17T19:49:10.370Z,16.43
2018-03-17T19:54:12.945Z,22.40
2018-03-17T19:59:15.536Z,23.17
2018-03-17T20:04:19.876Z,29.93
2018-03-17T20:09:22.440Z,22.67
2018-03-17T20:14:25.792Z,19.47
2018-03-17T20:19:28.344Z,13.83
2018-03-17T20:24:30.916Z,22.90
2018-03-17T20:29:33.479Z,23.10
2018-03-17T20:34:36.026Z,14.63
2018-03-17T20:39:38.613Z,21.70
2018-03-17T20:44:41.159Z,20.50
2018-03-17T20:49:43.752Z,25.80
2018-03-17T20:54:46.325Z,10.30
2018-03-17T20:59:48.898Z,22.47
2018-03-17T21:04:51.458Z,20.03
2018-03-17T21:09:54.025Z,21.33
2018-03-17T21:14:56.589Z,25.60
2018-03-17T21:19:59.204Z,23.03
2018-03-17T21:25:01.794Z,22.27
2018-03-17T21:30:04.368Z,21.77
2018-03-17T21:35:06.964Z,22.00
2018-03-17T21:40:09.525Z,20.20
2018-03-17T21:45:12.114Z,22.80
2018-03-17T21:50:14.694Z,23.77
2018-03-17T21:55:17.315Z,27.10
2018-03-17T22:00:19.890Z,22.27
2018-03-17T22:05:22.490Z,21.27
2018-03-17T22:10:25.081Z,22.87
2018-03-17T22:15:28.426Z,24.60
2018-03-17T22:20:30.984Z,28.53
2018-03-17T22:25:33.540Z,18.57
2018-03-17T22:30:36.110Z,18.50
2018-03-17T22:35:39.452Z,8.40
2018-03-17T22:40:42.032Z,18.60
2018-03-17T22:45:44.586Z,19.37
2018-03-17T22:50:47.170Z,24.63
2018-03-17T22:55:49.743Z,26.43
2018-03-17T23:00:52.330Z,16.00
2018-03-17T23:05:54.959Z,18.83
2018-03-17T23:10:57.574Z,26.40
2018-03-17T23:16:00.447Z,22.13
2018-03-17T23:21:03.128Z,23.90
2018-03-17T23:26:06.493Z,17.03
2018-03-17T23:31:09.073Z,22.53
2018-03-17T23:36:11.656Z,20.57
2018-03-17T23:41:14.237Z,26.10
2018-03-17T23:46:16.828Z,19.97
2018-03-17T23:51:19.404Z,21.83
2018-03-17T23:56:21.995Z,22.37
